Siskiyou Pass Past Weather

Last 30 Days

 
High: 47ºf @12:54 AM    Low: 47ºf @12:54 AM     Approx. Precipitation / Rain Total: in.
Time (PDT)Temp. (ºf)Humidity (%)Dew Point (ºf)Barometer (inHG)Wind Speed (mph)Wind DirectionWind Gust (mph)1hr. Precip / Rain Total (in.)Snow Depth
12:54 AM479946.73-0.87ene3.48--
High: 63ºf @12:54 AM    Low: 46ºf @11:54 PM     Approx. Precipitation / Rain Total: in.
Time (PDT)Temp. (ºf)Humidity (%)Dew Point (ºf)Barometer (inHG)Wind Speed (mph)Wind DirectionWind Gust (mph)1hr. Precip / Rain Total (in.)Snow Depth
11:54 PM469945.73---3.48--
10:54 PM499948.73---3.48--
9:54 PM519950.73-0.87ese2.61--
8:54 PM499948.73---2.61--
6:54 PM519750.18-3.48ese9.56--
5:54 PM529650.89-3.48se9.56--
4:54 PM529249.75-4.34se13.03--
3:54 PM529249.75-6.08se13.9--
2:54 PM529249.75-5.21ese13.9--
1:54 PM529249.75-5.21se13.03--
12:54 PM509548.62-3.48se10.43--
11:54 AM509147.48-6.08se13.9--
10:54 AM509147.48-5.21ese13.03--
9:54 AM546542.5-6.95se17.38--
8:54 AM556141.8-8.69se19.12--
7:54 AM575641.46-6.95ese15.64--
6:54 AM565941.88-6.08se12.17--
5:54 AM575540.99-5.21se14.77--
4:54 AM585943.75-6.08ese16.51--
3:54 AM605845.18-6.95se14.77--
2:54 AM624942.62-6.08se12.17--
1:54 AM624942.62-4.34ese14.77--
12:54 AM635446.09-6.95se12.17--
High: 81ºf @2:54 PM    Low: 42ºf @6:54 AM     Approx. Precipitation / Rain Total: in.
Time (PDT)Temp. (ºf)Humidity (%)Dew Point (ºf)Barometer (inHG)Wind Speed (mph)Wind DirectionWind Gust (mph)1hr. Precip / Rain Total (in.)Snow Depth
11:54 PM645246.02-5.21se13.03--
10:54 PM654140.72-6.95se11.3--
9:54 PM682227.74-4.34se10.43--
7:54 PM702027.08-3.48ese9.56--
6:54 PM732029.55-2.61se9.56--
5:54 PM761829.43-4.34se11.3--
3:54 PM801731.26-3.48sse11.3--
2:54 PM811528.98-4.34se13.9--
1:54 PM811427.31-6.08se17.38--
12:54 PM801832.67-6.08se14.77--
11:54 AM781831.05-6.08se13.03--
10:54 AM762234.4-4.34se11.3--
9:54 AM683942.11---1.74--
8:54 AM594839.34---1.74--
7:54 AM476033.84-0.87ne2.61--
6:54 AM427032.94-0.87ne3.48--
4:54 AM446332.23-0.87n3.48--
3:54 AM456433.57---2.61--
1:54 AM466534.9-1.74ne3.48--
12:54 AM496035.73-0.87ne3.48--
High: 81ºf @1:54 PM    Low: 50ºf @11:54 PM     Approx. Precipitation / Rain Total: in.
Time (PDT)Temp. (ºf)Humidity (%)Dew Point (ºf)Barometer (inHG)Wind Speed (mph)Wind DirectionWind Gust (mph)1hr. Precip / Rain Total (in.)Snow Depth
11:54 PM506036.67-0.87ne3.48--
8:54 PM585240.47-0.87ne3.48--
7:54 PM634541.32-1.74nne3.48--
6:54 PM713642.69-0.87n6.08--
5:54 PM782134.89-1.74se6.95--
4:54 PM792034.49-2.61se6.95--
3:54 PM792135.71-1.74sse6.95--
2:54 PM802843.94-1.74nnw8.69--
1:54 PM813046.62-0.87nw7.82--
12:54 PM773244.86-0.87nw4.34--
11:54 AM743645.34-0.87nw6.08--
10:54 AM684244.04-1.74wnw8.69--
9:54 AM654744.27-0.87wnw6.08--
8:54 AM595743.79-0.87w6.08--
7:54 AM536641.95---4.34--
5:54 AM536340.75---7.82--
3:54 AM546542.5-0.87nnw6.08--
2:54 AM566243.17-0.87n6.95--
1:54 AM595542.85-1.74nne7.82--
12:54 AM605242.32-1.74ne11.3--
High: 84ºf @1:54 PM    Low: 47ºf @6:54 AM     Approx. Precipitation / Rain Total: in.
Time (PDT)Temp. (ºf)Humidity (%)Dew Point (ºf)Barometer (inHG)Wind Speed (mph)Wind DirectionWind Gust (mph)1hr. Precip / Rain Total (in.)Snow Depth
11:54 PM624942.62-1.74nne11.3--
10:54 PM654643.71-3.48n10.43--
9:54 PM664644.62-2.61nnw8.69--
8:54 PM674343.76-2.61n7.82--
7:54 PM693842.33-0.87n7.82--
5:54 PM782539.31-1.74nw6.95--
4:54 PM802439.95-2.61wnw6.95--
3:54 PM822643.71-1.74w6.08--
2:54 PM832341.36-1.74wnw6.08--
1:54 PM842342.19-0.87w5.21--
12:54 PM812440.78-1.74wnw8.69--
11:54 AM782741.29-1.74wnw8.69--
10:54 AM722937.99-3.48nw8.69--
9:54 AM683438.58-2.61nw6.95--
8:54 AM576244.11---2.61--
7:54 AM496336.96-0.87nne4.34--
6:54 AM476435.46-1.74nne3.48--
5:54 AM495834.87-2.61nne4.34--
4:54 AM495935.3---4.34--
3:54 AM505835.81-2.61nne4.34--
2:54 AM515736.31-2.61ne4.34--
1:54 AM535738.18-0.87ne3.48--
12:54 AM555237.7-0.87ene3.48--
High: 84ºf @2:54 PM    Low: 46ºf @6:54 AM     Approx. Precipitation / Rain Total: in.
Time (PDT)Temp. (ºf)Humidity (%)Dew Point (ºf)Barometer (inHG)Wind Speed (mph)Wind DirectionWind Gust (mph)1hr. Precip / Rain Total (in.)Snow Depth
11:54 PM574736.97-0.87e4.34--
9:54 PM584637.34-1.74ene3.48--
8:54 PM624439.83-0.87ene3.48--
7:54 PM693540.2-0.87ene6.95--
6:54 PM752637.78-1.74wnw6.95--
5:54 PM792439.11-2.61wnw9.56--
4:54 PM822138.19-2.61nw9.56--
3:54 PM822138.19-4.34nw12.17--
2:54 PM842139.84-2.61wnw9.56--
1:54 PM822542.68-3.48wnw10.43--
12:54 PM802642.01-2.61nw7.82--
11:54 AM772942.29-2.61nw11.3--
10:54 AM743141.43-3.48wnw8.69--
9:54 AM713642.69-1.74wnw5.21--
8:54 AM625244.17-1.74ne4.34--
7:54 AM506639.09-3.48ne4.34--
6:54 AM467337.84-2.61ne5.21--
5:54 AM467237.49-2.61ne5.21--
4:54 AM487038.69-1.74ne5.21--
3:54 AM496738.53-2.61ne5.21--
2:54 AM506839.86-1.74ne4.34--
1:54 AM526540.6-1.74ne5.21--
12:54 AM546241.28-1.74ne3.48--
High: 80ºf @2:54 PM    Low: 47ºf @6:54 AM     Approx. Precipitation / Rain Total: in.
Time (PDT)Temp. (ºf)Humidity (%)Dew Point (ºf)Barometer (inHG)Wind Speed (mph)Wind DirectionWind Gust (mph)1hr. Precip / Rain Total (in.)Snow Depth
11:54 PM584938.95---6.95--
10:54 PM624540.41-0.87nw5.21--
9:54 PM663839.66-0.87nne9.56--
8:54 PM693338.69-3.48n9.56--
7:54 PM703238.78-2.61nne6.95--
6:54 PM743040.59-1.74nw7.82--
5:54 PM772639.47-1.74nw8.69--
4:54 PM792641.17-2.61nw9.56--
3:54 PM792742.14-3.48nw10.43--
2:54 PM802944.86-3.48wnw12.17--
1:54 PM803247.47-2.61wnw9.56--
12:54 PM763546.35-1.74wnw11.3--
11:54 AM733946.57-2.61nw8.69--
10:54 AM694546.76-2.61wnw8.69--
9:54 AM655246.94-2.61nw11.3--
8:54 AM606146.51-0.87nw4.34--
6:54 AM477840.5-1.74nne4.34--
3:54 AM546944.06---5.21--
2:54 AM595442.38-1.74nne5.21--
1:54 AM556342.64---2.61--
12:54 AM624439.83-1.74ne3.48--
High: 81ºf @2:54 PM    Low: 48ºf @6:54 AM     Approx. Precipitation / Rain Total: in.
Time (PDT)Temp. (ºf)Humidity (%)Dew Point (ºf)Barometer (inHG)Wind Speed (mph)Wind DirectionWind Gust (mph)1hr. Precip / Rain Total (in.)Snow Depth
11:54 PM595140.9-0.87e5.21--
10:54 PM605242.32-0.87ne4.34--
9:54 PM654040.09-0.87se6.08--
8:54 PM674243.14-1.74ne5.21--
7:54 PM665247.86---2.61--
6:54 PM743544.6-0.87nw7.82--
5:54 PM773144.03-1.74nw8.69--
4:54 PM792742.14-2.61nw7.82--
3:54 PM792944.01-2.61wnw9.56--
2:54 PM813046.62-1.74nw11.3--
1:54 PM803549.86-2.61nw10.43--
11:54 AM773849.43-3.48nw8.69--
10:54 AM734349.17-2.61wnw9.56--
9:54 AM695049.58-2.61wnw6.95--
8:54 AM636450.63---3.48--
7:54 AM527745.02-2.61ne4.34--
6:54 AM488343.09-2.61ne4.34--
5:54 AM498243.75-2.61ne5.21--
4:54 AM508044.08-2.61ne4.34--
3:54 AM508244.72-2.61nne5.21--
2:54 AM518346.02-1.74ne4.34--
1:54 AM528246.68-1.74ne4.34--
12:54 AM547847.3-1.74ne4.34--
High: 81ºf @1:54 PM    Low: 49ºf @6:54 AM     Approx. Precipitation / Rain Total: in.
Time (PDT)Temp. (ºf)Humidity (%)Dew Point (ºf)Barometer (inHG)Wind Speed (mph)Wind DirectionWind Gust (mph)1hr. Precip / Rain Total (in.)Snow Depth
11:54 PM577348.43-0.87ne3.48--
10:54 PM625947.5-1.74e4.34--
9:54 PM616549.15---3.48--
8:54 PM617051.14-0.87ne2.61--
7:54 PM666252.6-1.74ne3.48--
6:54 PM725052.33---6.08--
5:54 PM764351.87-0.87wnw7.82--
4:54 PM783951.01-0.87w6.95--
3:54 PM793951.9-1.74nnw6.08--
2:54 PM813953.68-0.87wnw6.95--
1:54 PM813852.97-1.74nw6.08--
12:54 PM804053.48-1.74nw6.95--
11:54 AM765056-0.87wnw6.95--
10:54 AM725554.94-1.74wnw6.95--
9:54 AM676253.54-1.74nw5.21--
8:54 AM617553.02---2.61--
7:54 AM528948.86-1.74ne4.34--
6:54 AM499647.91-1.74ne3.48--
5:54 AM499647.91-1.74nne4.34--
4:54 AM509448.34-1.74nne3.48--
3:54 AM539050.15---3.48--
2:54 AM568551.55---4.34--
1:54 AM597651.44---8.69--
12:54 AM588252.53-0.87e6.08--
High: 75ºf @2:54 PM    Low: 58ºf @9:54 PM     Approx. Precipitation / Rain Total: in.
Time (PDT)Temp. (ºf)Humidity (%)Dew Point (ºf)Barometer (inHG)Wind Speed (mph)Wind DirectionWind Gust (mph)1hr. Precip / Rain Total (in.)Snow Depth
9:54 PM588854.46---2.61--
8:54 PM608455.15---3.48--
7:54 PM638157.07-0.87ne2.61--
6:54 PM706055.46-1.74ene6.08--
5:54 PM735354.84-2.61se8.69--
4:54 PM735354.84-3.48se9.56--
3:54 PM735555.86-0.87s7.82--
2:54 PM755155.63-2.61se8.69--
1:54 PM745556.79-4.34se10.43--
12:54 PM735957.81-4.34se10.43--
11:54 AM726660.01-2.61sse12.17--
10:54 AM707160.15-2.61se11.3--
9:54 AM688061.59-1.74s6.08--
7:54 AM609959.72---2.61--
6:54 AM609658.85-0.87s8.69--
5:54 AM619158.35-3.48ese8.69--
4:54 AM609859.43---8.69--
3:54 AM619960.72-0.87w5.21--
2:54 AM619960.72---4.34--
1:54 AM629660.84-1.74nne5.21--
12:54 AM638357.75---4.34--
High: 90ºf @3:54 PM    Low: 52ºf @6:54 AM     Approx. Precipitation / Rain Total: in.
Time (PDT)Temp. (ºf)Humidity (%)Dew Point (ºf)Barometer (inHG)Wind Speed (mph)Wind DirectionWind Gust (mph)1hr. Precip / Rain Total (in.)Snow Depth
11:54 PM695049.58-0.87nne5.21--
10:54 PM704547.67---3.48--
8:54 PM734550.39-0.87nnw5.21--
6:54 PM783648.86-0.87ne4.34--
5:54 PM813046.62-0.87wnw6.08--
4:54 PM862647.09-3.48se13.03--
3:54 PM902246.01-2.61se13.03--
2:54 PM902246.01-5.21se12.17--
1:54 PM882446.65-3.48se13.03--
12:54 PM872647.93-2.61se12.17--
11:54 AM882749.79-1.74sse10.43--
10:54 AM863050.92-2.61sse6.95--
9:54 AM784454.3---1.74--
8:54 AM675952.19---2.61--
7:54 AM557045.4---3.48--
6:54 AM527142.89-0.87nne4.34--
5:54 AM536943.1-0.87ne3.48--
4:54 AM546843.68-0.87nne3.48--
3:54 AM546642.9-0.87nne2.61--
2:54 AM556342.64-0.87ne3.48--
1:54 AM566042.31-1.74n3.48--
12:54 AM585642.39-0.87ne3.48--
High: 92ºf @1:54 PM    Low: 56ºf @6:54 AM     Approx. Precipitation / Rain Total: in.
Time (PDT)Temp. (ºf)Humidity (%)Dew Point (ºf)Barometer (inHG)Wind Speed (mph)Wind DirectionWind Gust (mph)1hr. Precip / Rain Total (in.)Snow Depth
11:54 PM615444.23-1.74ne3.48--
10:54 PM635144.58-0.87nne2.61--
9:54 PM664745.18-0.87ne3.48--
8:54 PM675047.74-0.87ne3.48--
7:54 PM714447.98-0.87nne2.61--
6:54 PM772740.44---7.82--
5:54 PM802541-1.74nw8.69--
4:54 PM892042.68-4.34se13.03--
3:54 PM891941.35-4.34se13.9--
2:54 PM911841.57-5.21se14.77--
1:54 PM921740.9-6.08se14.77--
12:54 PM902246.01-1.74sse6.95--
11:54 AM782842.24-0.87w6.95--
10:54 AM772942.29-0.87nw5.21--
9:54 AM713441.21-0.87wnw4.34--
8:54 AM655146.42-0.87ene2.61--
7:54 AM595140.9-0.87ene3.48--
6:54 AM564836.59-1.74nne4.34--
4:54 AM574133.54-1.74ne4.34--
2:54 AM604035.61-1.74ne3.48--
12:54 AM643132.76---4.34--
High: 95ºf @12:54 PM    Low: 48ºf @6:54 AM     Approx. Precipitation / Rain Total: in.
Time (PDT)Temp. (ºf)Humidity (%)Dew Point (ºf)Barometer (inHG)Wind Speed (mph)Wind DirectionWind Gust (mph)1hr. Precip / Rain Total (in.)Snow Depth
11:54 PM682631.83-1.74ne5.21--
10:54 PM722028.73-1.74nnw8.69--
9:54 PM742232.73-1.74nnw9.56--
8:54 PM772134.06-4.34nw13.03--
6:54 PM841835.92-2.61nnw9.56--
5:54 PM911638.55-3.48se12.17--
4:54 PM921740.9-3.48sse11.3--
3:54 PM931843.19-2.61se13.03--
2:54 PM951641.73-4.34se11.3--
1:54 PM941539.27-5.21se9.56--
12:54 PM951336.41-1.74sse6.95--
11:54 AM911435.16-2.61s9.56--
10:54 AM891738.49-1.74sse4.34--
9:54 AM793044.9---0.87--
8:54 AM694647.35---0.87--
7:54 AM564836.59-0.87ne3.48--
6:54 AM485532.61-1.74ne3.48--
5:54 AM485231.22-1.74ne3.48--
4:54 AM494729.66---3.48--
3:54 AM504428.95-1.74ne3.48--
2:54 AM504428.95-0.87nnw2.61--
1:54 AM514329.3-1.74nne2.61--
12:54 AM514329.3---3.48--
High: 91ºf @1:54 PM    Low: 44ºf @6:54 AM     Approx. Precipitation / Rain Total: in.
Time (PDT)Temp. (ºf)Humidity (%)Dew Point (ºf)Barometer (inHG)Wind Speed (mph)Wind DirectionWind Gust (mph)1hr. Precip / Rain Total (in.)Snow Depth
11:54 PM533928.71-0.87nne3.48--
10:54 PM553326.43-1.74ne3.48--
9:54 PM593229.19-1.74ne3.48--
8:54 PM633232.68---4.34--
7:54 PM702633.53-0.87ene3.48--
6:54 PM821224.38-1.74se5.21--
5:54 PM861431.24-0.87sw8.69--
4:54 PM881126.89-3.48se9.56--
3:54 PM891025.36-4.34ese9.56--
2:54 PM911129.18-1.74s8.69--
1:54 PM911129.18-2.61sse8.69--
12:54 PM911129.18-3.48sse9.56--
11:54 AM891229.78-1.74s8.69--
10:54 AM842241.04---4.34--
9:54 AM743443.84---1.74--
8:54 AM624842.08-0.87ne2.61--
7:54 AM505032.1-0.87ene4.34--
6:54 AM445528.88---3.48--
5:54 AM455127.97-1.74nne3.48--
4:54 AM455127.97-1.74nne3.48--
3:54 AM484628.22-1.74n2.61--
2:54 AM494226.92-2.61nne4.34--
1:54 AM513926.92-1.74nne3.48--
12:54 AM523625.88-1.74nne4.34--
High: 91ºf @2:54 PM    Low: 43ºf @6:54 AM     Approx. Precipitation / Rain Total: in.
Time (PDT)Temp. (ºf)Humidity (%)Dew Point (ºf)Barometer (inHG)Wind Speed (mph)Wind DirectionWind Gust (mph)1hr. Precip / Rain Total (in.)Snow Depth
11:54 PM543224.82-2.61n5.21--
10:54 PM553225.69-2.61ne4.34--
9:54 PM593027.61-1.74ene4.34--
8:54 PM613230.93-0.87nne3.48--
7:54 PM682934.55-1.74ene2.61--
6:54 PM821224.38-0.87se7.82--
5:54 PM861023.09-2.61se9.56--
4:54 PM881024.6-2.61sse9.56--
3:54 PM891025.36-2.61sse10.43--
2:54 PM91924.33-4.34se11.3--
1:54 PM90923.59-6.08se13.03--
12:54 PM901026.11-3.48se11.3--
11:54 AM891229.78-2.61sse6.95--
10:54 AM822340.52-0.87ssw3.48--
9:54 AM733241.39---0.87--
8:54 AM624741.54---1.74--
7:54 AM485833.94---2.61--
6:54 AM436030.08-0.87n2.61--
5:54 AM445830.18-0.87ne3.48--
3:54 AM494528.59-2.61ne4.34--
2:54 AM494528.59-0.87nne3.48--
1:54 AM504227.82-1.74nne3.48--
12:54 AM514027.54-1.74nne5.21--
High: 89ºf @2:54 PM    Low: 41ºf @6:54 AM     Approx. Precipitation / Rain Total: in.
Time (PDT)Temp. (ºf)Humidity (%)Dew Point (ºf)Barometer (inHG)Wind Speed (mph)Wind DirectionWind Gust (mph)1hr. Precip / Rain Total (in.)Snow Depth
11:54 PM533828.08-1.74ne4.34--
10:54 PM553628.54-1.74ne3.48--
9:54 PM583329.06-0.87ne4.34--
8:54 PM623433.31-1.74n3.48--
7:54 PM683337.82-1.74ne3.48--
6:54 PM772235.23---6.08--
5:54 PM831632.17-2.61nw7.82--
4:54 PM861023.09-1.74ssw6.95--
3:54 PM871126.13-0.87ssw6.08--
2:54 PM891127.66-0.87s6.08--
1:54 PM891127.66-1.74wnw6.95--
12:54 PM881534.53-0.87nw6.95--
11:54 AM841835.92-0.87nne4.34--
10:54 AM792135.71---1.74--
9:54 AM713441.21-0.87ssw1.74--
8:54 AM604739.71-0.87ne2.61--
7:54 AM465631.19-0.87ne3.48--
6:54 AM416128.6-1.74nne3.48--
4:54 AM425326.12-1.74nne2.61--
2:54 AM445227.52-1.74nne3.48--
1:54 AM455027.49-0.87nne2.61--
12:54 AM474426.23-0.87ne3.48--
High: 84ºf @2:54 PM    Low: 42ºf @6:54 AM     Approx. Precipitation / Rain Total: in.
Time (PDT)Temp. (ºf)Humidity (%)Dew Point (ºf)Barometer (inHG)Wind Speed (mph)Wind DirectionWind Gust (mph)1hr. Precip / Rain Total (in.)Snow Depth
11:54 PM494226.92-0.87nne3.48--
10:54 PM523625.88-1.74ne3.48--
9:54 PM543627.66-3.48ne4.34--
8:54 PM583832.54-0.87ne4.34--
7:54 PM643435.07-1.74ne4.34--
6:54 PM772134.06-0.87e4.34--
5:54 PM801426.52---4.34--
4:54 PM831225.15-0.87ssw6.95--
3:54 PM831428.88-0.87wsw4.34--
2:54 PM841632.96-0.87w6.95--
1:54 PM831733.67-0.87w6.08--
12:54 PM792135.71-2.61nw6.95--
10:54 AM732535.09-1.74nw5.21--
9:54 AM673236.16-1.74nw5.21--
7:54 AM465631.19-2.61ne5.21--
6:54 AM425828.31-1.74nne4.34--
5:54 AM435728.82-1.74nne4.34--
4:54 AM445528.88-2.61ne5.21--
3:54 AM455328.91-2.61ne5.21--
2:54 AM455529.82-1.74ne4.34--
1:54 AM465530.75-1.74ne4.34--
12:54 AM485231.22-2.61ne4.34--
High: 78ºf @2:54 PM    Low: 41ºf @6:54 AM     Approx. Precipitation / Rain Total: in.
Time (PDT)Temp. (ºf)Humidity (%)Dew Point (ºf)Barometer (inHG)Wind Speed (mph)Wind DirectionWind Gust (mph)1hr. Precip / Rain Total (in.)Snow Depth
11:54 PM504730.57-1.74ne3.48--
10:54 PM515133.51---4.34--
9:54 PM544734.23-0.87ene3.48--
7:54 PM624741.54---3.48--
6:54 PM702936.27-0.87wnw4.34--
5:54 PM732737.03-2.61wnw8.69--
3:54 PM762638.62-1.74wnw5.21--
2:54 PM782236.06-0.87nne6.08--
1:54 PM782134.89-1.74w5.21--
12:54 PM762234.4-0.87w5.21--
11:54 AM742737.89-0.87nw4.34--
10:54 AM683337.82-1.74wnw5.21--
9:54 AM654040.09---3.48--
8:54 AM555840.5-0.87ne3.48--
7:54 AM456634.33-1.74ne4.34--
6:54 AM417433.36-0.87nne2.61--
5:54 AM436933.54-0.87n3.48--
4:54 AM436833.17---2.61--
3:54 AM456433.57-1.74nne3.48--
2:54 AM456533.95---2.61--
1:54 AM485733.5-0.87nne3.48--
12:54 AM495734.44---3.48--
High: 80ºf @3:54 PM    Low: 45ºf @6:54 AM     Approx. Precipitation / Rain Total: in.
Time (PDT)Temp. (ºf)Humidity (%)Dew Point (ºf)Barometer (inHG)Wind Speed (mph)Wind DirectionWind Gust (mph)1hr. Precip / Rain Total (in.)Snow Depth
11:54 PM515434.95-2.61ne3.48--
10:54 PM545035.78-0.87n3.48--
9:54 PM584436.21-0.87n5.21--
8:54 PM633736.32-1.74ne4.34--
7:54 PM683136.23-1.74ne5.21--
6:54 PM742535.94-1.74se6.08--
5:54 PM762638.62-1.74wnw7.82--
4:54 PM772740.44-2.61wnw8.69--
3:54 PM802439.95-3.48wnw8.69--
2:54 PM802439.95-2.61nw7.82--
1:54 PM792540.15-3.48nw7.82--
12:54 PM762739.59-2.61wnw8.69--
11:54 AM723240.52-3.48nw11.3--
10:54 AM693540.2-2.61wnw10.43--
9:54 AM644039.19-3.48nw9.56--
8:54 AM604840.25-0.87wnw3.48--
7:54 AM495935.3-0.87ne3.48--
6:54 AM456634.33-0.87ne2.61--
5:54 AM475933.42-0.87ene3.48--
4:54 AM506036.67-0.87nw4.34--
3:54 AM535436.8-0.87nnw6.95--
2:54 AM554936.19-0.87n3.48--
1:54 AM554735.14-0.87nnw2.61--
12:54 AM593833.43---8.69--
High: 78ºf @4:54 PM    Low: 50ºf @6:54 AM     Approx. Precipitation / Rain Total: in.
Time (PDT)Temp. (ºf)Humidity (%)Dew Point (ºf)Barometer (inHG)Wind Speed (mph)Wind DirectionWind Gust (mph)1hr. Precip / Rain Total (in.)Snow Depth
11:54 PM613432.43-0.87ne6.08--
10:54 PM643132.76-1.74n7.82--
9:54 PM653032.81-1.74nnw11.3--
8:54 PM672530.02-1.74nw8.69--
7:54 PM702633.53-2.61nw8.69--
6:54 PM751625.76-1.74nw8.69--
5:54 PM771931.57-2.61nw7.82--
4:54 PM781932.39-2.61nw10.43--
3:54 PM781932.39-2.61wnw9.56--
2:54 PM782033.67-3.48wnw11.3--
1:54 PM782134.89-3.48nw11.3--
12:54 PM772336.35-2.61nw12.17--
11:54 AM723240.52-2.61wnw9.56--
10:54 AM703843.21-2.61nw11.3--
9:54 AM644743.36-2.61nw8.69--
8:54 AM605342.82-0.87wnw6.08--
7:54 AM536541.55-0.87w3.48--
6:54 AM506639.09---4.34--
5:54 AM525938.12-0.87nnw4.34--
3:54 AM535738.18---2.61--
2:54 AM555137.21---6.08--
1:54 AM594437.12-0.87n7.82--
12:54 AM613935.86-2.61nnw11.3--
High: 83ºf @1:54 PM    Low: 49ºf @6:54 AM     Approx. Precipitation / Rain Total: in.
Time (PDT)Temp. (ºf)Humidity (%)Dew Point (ºf)Barometer (inHG)Wind Speed (mph)Wind DirectionWind Gust (mph)1hr. Precip / Rain Total (in.)Snow Depth
11:54 PM633534.92-1.74nnw9.56--
10:54 PM653536.68-1.74n9.56--
9:54 PM673336.94-1.74nne7.82--
7:54 PM732434.07-1.74nw11.3--
6:54 PM782236.06-3.48nnw11.3--
5:54 PM802439.95-2.61nw7.82--
4:54 PM812642.86-0.87wnw6.95--
3:54 PM822744.69-2.61wnw9.56--
2:54 PM832644.55-2.61wnw8.69--
1:54 PM832745.54-1.74wnw9.56--
12:54 PM802944.86-2.61nw9.56--
11:54 AM783245.73-2.61nw8.69--
10:54 AM743645.34-2.61nw7.82--
9:54 AM694144.31-2.61wnw7.82--
8:54 AM654543.14-2.61nw6.08--
7:54 AM536139.91-2.61ne4.34--
6:54 AM496537.75-1.74ne5.21--
5:54 AM506538.7-1.74ne3.48--
4:54 AM516539.65-1.74ne4.34--
2:54 AM565339.11-2.61ne4.34--
12:54 AM575440.52-0.87ne3.48--
High: 91ºf @2:54 PM    Low: 52ºf @6:54 AM     Approx. Precipitation / Rain Total: in.
Time (PDT)Temp. (ºf)Humidity (%)Dew Point (ºf)Barometer (inHG)Wind Speed (mph)Wind DirectionWind Gust (mph)1hr. Precip / Rain Total (in.)Snow Depth
11:54 PM595040.39-1.74nne3.48--
10:54 PM614740.62-1.74ne3.48--
9:54 PM634340.15-2.61ne4.34--
8:54 PM664644.62-0.87nne2.61--
7:54 PM733442.96-0.87nne2.61--
5:54 PM861938.91-3.48se10.43--
4:54 PM881940.54-2.61se7.82--
3:54 PM901942.17-2.61se8.69--
2:54 PM911740.1-3.48se11.3--
1:54 PM901739.3-3.48se9.56--
12:54 PM881839.15-2.61sse8.69--
11:54 AM852949.15---2.61--
10:54 AM813046.62---3.48--
9:54 AM743645.34-0.87wnw4.34--
8:54 AM645748.46---2.61--
7:54 AM555840.5-0.87nne4.34--
6:54 AM525636.79-1.74nne3.48--
5:54 AM535537.27-1.74nne4.34--
4:54 AM545437.73-1.74nne5.21--
3:54 AM564937.11-0.87ne4.34--
2:54 AM574938.03-2.61nne5.21--
1:54 AM584737.88-2.61ne5.21--
12:54 AM585240.47-0.87ene4.34--
High: 87ºf @3:54 PM    Low: 49ºf @6:54 AM     Approx. Precipitation / Rain Total: in.
Time (PDT)Temp. (ºf)Humidity (%)Dew Point (ºf)Barometer (inHG)Wind Speed (mph)Wind DirectionWind Gust (mph)1hr. Precip / Rain Total (in.)Snow Depth
11:54 PM614841.17-1.74ene3.48--
10:54 PM634340.15-0.87ne5.21--
9:54 PM634440.74-0.87ne5.21--
8:54 PM684042.77-0.87ne2.61--
7:54 PM753545.47-0.87ene4.34--
6:54 PM822643.71---5.21--
5:54 PM852545.21-1.74wnw7.82--
4:54 PM862444.97-3.48nw10.43--
3:54 PM872243.52-3.48wnw7.82--
2:54 PM862242.7-3.48wnw9.56--
1:54 PM862546.05-2.61nw8.69--
12:54 PM832846.51-3.48nw10.43--
11:54 AM793145.76-2.61nw8.69--
10:54 AM753746.94-2.61nw8.69--
9:54 AM704346.46-1.74wnw10.43--
8:54 AM665046.82-1.74nw5.21--
7:54 AM545739.11-1.74ne4.34--
6:54 AM496136.14-2.61ne4.34--
5:54 AM516539.65-1.74ne3.48--
4:54 AM546944.06---3.48--
3:54 AM576244.11-0.87nnw4.34--
2:54 AM615343.74-0.87nnw12.17--
1:54 AM615444.23-0.87nw5.21--
12:54 AM605443.3-0.87nnw3.48--
High: 81ºf @4:54 PM    Low: 56ºf @6:54 AM     Approx. Precipitation / Rain Total: in.
Time (PDT)Temp. (ºf)Humidity (%)Dew Point (ºf)Barometer (inHG)Wind Speed (mph)Wind DirectionWind Gust (mph)1hr. Precip / Rain Total (in.)Snow Depth
11:54 PM625043.14---10.43--
10:54 PM673941.22-2.61nne8.69--
9:54 PM703137.97-1.74nne13.03--
8:54 PM732333-2.61n9.56--
7:54 PM762335.51-3.48n10.43--
6:54 PM791933.21-1.74nw10.43--
5:54 PM812238.55-2.61wnw11.3--
4:54 PM812238.55-3.48nw10.43--
3:54 PM812238.55-3.48nw11.3--
2:54 PM812440.78-3.48nw13.03--
1:54 PM802843.94-4.34nw12.17--
12:54 PM793145.76-2.61nw12.17--
11:54 AM733644.45-5.21nne13.03--
10:54 AM714246.74-2.61n13.03--
9:54 AM675349.3-4.34nne13.9--
8:54 AM645848.92-2.61nne12.17--
7:54 AM596748.06-3.48ne13.03--
6:54 AM567146.73-3.48nne11.3--
5:54 AM566644.8-2.61ne8.69--
4:54 AM585943.75-3.48ne8.69--
3:54 AM585742.85-3.48ne8.69--
2:54 AM605242.32-1.74n9.56--
1:54 AM624741.54-1.74nw9.56--
12:54 AM634340.15-1.74nnw7.82--
High: 83ºf @2:54 PM    Low: 48ºf @5:54 AM     Approx. Precipitation / Rain Total: in.
Time (PDT)Temp. (ºf)Humidity (%)Dew Point (ºf)Barometer (inHG)Wind Speed (mph)Wind DirectionWind Gust (mph)1hr. Precip / Rain Total (in.)Snow Depth
11:54 PM653838.77-2.61nnw10.43--
10:54 PM673236.16-3.48nw8.69--
9:54 PM683035.4-2.61nw11.3--
8:54 PM712836.25-4.34nw12.17--
7:54 PM742737.89-3.48nw11.3--
6:54 PM782337.18-2.61nnw10.43--
5:54 PM812339.69-2.61nnw11.3--
4:54 PM812440.78-3.48nw9.56--
3:54 PM812541.84-3.48nw10.43--
2:54 PM832543.52-3.48nnw12.17--
1:54 PM812642.86-2.61wnw10.43--
12:54 PM812743.84-2.61wnw7.82--
11:54 AM763143.16-2.61nw7.82--
10:54 AM723744.29-2.61wnw8.69--
9:54 AM684445.26-1.74wnw7.82--
8:54 AM645044.98-0.87wnw2.61--
7:54 AM546743.29-0.87nw2.61--
6:54 AM507040.61---5.21--
5:54 AM486938.32-0.87ne2.61--
4:54 AM496437.36-1.74ne3.48--
3:54 AM545437.73-0.87ene3.48--
2:54 AM584536.78-0.87ene6.08--
1:54 AM604035.61-0.87n6.95--
12:54 AM554936.19-0.87ene3.48--
High: 76ºf @6:54 PM    Low: 55ºf @11:54 PM     Approx. Precipitation / Rain Total: in.
Time (PDT)Temp. (ºf)Humidity (%)Dew Point (ºf)Barometer (inHG)Wind Speed (mph)Wind DirectionWind Gust (mph)1hr. Precip / Rain Total (in.)Snow Depth
11:54 PM555036.7---3.48--
10:54 PM623534.03-2.61ese6.08--
9:54 PM643334.32-0.87nw5.21--
8:54 PM634440.74-1.74ene3.48--
7:54 PM684143.41-1.74nne4.34--
6:54 PM762638.62-1.74se8.69--
Past Weather Disclaimer Note regarding "Approx. Precipitation / Rain Total"

Currently

Overcast 48°F
29.99in
Barometer
89%
Humidity
North 0.0mph
Wind
Overcast

Past Weather Nearby

More Local Information

Bookmark and Share

Go Ad Free - Become a Member